createdAt,value
2023-04-27T00:00:13.124Z,1.20
2023-04-27T00:02:43.918Z,1.20
2023-04-27T00:05:15.022Z,1.30
2023-04-27T00:07:45.461Z,1.35
2023-04-27T00:10:15.745Z,1.15
2023-04-27T00:12:45.892Z,1.48
2023-04-27T00:15:16.113Z,1.02
2023-04-27T00:17:46.504Z,1.10
2023-04-27T00:20:16.790Z,1.30
2023-04-27T00:22:47.401Z,1.20
2023-04-27T00:25:17.887Z,1.63
2023-04-27T00:27:48.170Z,1.48
2023-04-27T00:30:18.502Z,1.70
2023-04-27T00:32:48.784Z,1.65
2023-04-27T00:35:19.413Z,1.50
2023-04-27T00:37:49.602Z,1.83
2023-04-27T00:40:19.810Z,1.58
2023-04-27T00:42:50.069Z,1.60
2023-04-27T00:45:20.290Z,1.67
2023-04-27T00:47:50.572Z,1.90
2023-04-27T00:50:31.873Z,1.65
2023-04-27T00:53:03.159Z,1.85
2023-04-27T00:55:33.709Z,1.60
2023-04-27T00:58:04.218Z,1.95
2023-04-27T01:00:34.594Z,1.63
2023-04-27T01:03:06.411Z,2.00
2023-04-27T01:05:39.402Z,1.60
2023-04-27T01:08:10.881Z,1.58
2023-04-27T01:10:41.353Z,1.90
2023-04-27T01:13:11.920Z,2.10
2023-04-27T01:15:43.066Z,2.10
2023-04-27T01:18:13.465Z,1.58
2023-04-27T01:20:43.953Z,1.88
2023-04-27T01:23:19.899Z,1.52
2023-04-27T01:25:50.122Z,2.28
2023-04-27T01:28:20.487Z,1.63
2023-04-27T01:30:50.719Z,1.48
2023-04-27T01:33:20.951Z,1.65
2023-04-27T01:35:52.031Z,1.50
2023-04-27T01:38:28.197Z,1.38
2023-04-27T01:41:03.460Z,1.70
2023-04-27T01:43:34.731Z,1.65
2023-04-27T01:46:16.097Z,1.85
2023-04-27T01:48:46.287Z,1.52
2023-04-27T01:51:16.838Z,1.48
2023-04-27T01:53:46.983Z,1.77
2023-04-27T01:56:17.201Z,1.77
2023-04-27T01:58:47.916Z,1.55
2023-04-27T02:01:18.295Z,2.00
2023-04-27T02:03:48.661Z,1.77
2023-04-27T02:06:19.107Z,2.08
2023-04-27T02:08:49.502Z,1.70
2023-04-27T02:11:19.909Z,1.60
2023-04-27T02:13:50.519Z,1.63
2023-04-27T02:16:21.040Z,1.60
2023-04-27T02:18:51.291Z,1.55
2023-04-27T02:21:21.843Z,1.83
2023-04-27T02:23:52.125Z,1.58
2023-04-27T02:26:24.353Z,1.80
2023-04-27T02:28:54.500Z,1.35
2023-04-27T02:31:25.248Z,1.50
2023-04-27T02:33:55.540Z,1.20
2023-04-27T02:36:25.851Z,1.70
2023-04-27T02:38:56.106Z,1.73
2023-04-27T02:41:29.350Z,1.65
2023-04-27T02:43:59.540Z,1.55
2023-04-27T02:46:30.139Z,1.33
2023-04-27T02:49:00.434Z,1.30
2023-04-27T02:51:30.662Z,1.35
2023-04-27T02:54:00.849Z,1.20
2023-04-27T02:56:31.137Z,1.30
2023-04-27T02:59:01.274Z,1.35
2023-04-27T03:01:31.716Z,1.30
2023-04-27T03:04:02.246Z,1.42
2023-04-27T03:06:32.949Z,1.40
2023-04-27T03:09:03.358Z,1.30
2023-04-27T03:11:34.408Z,1.38
2023-04-27T03:14:06.479Z,1.30
2023-04-27T03:16:37.232Z,1.35
2023-04-27T03:19:07.883Z,1.20
2023-04-27T03:21:38.522Z,1.10
2023-04-27T03:24:09.098Z,1.10
2023-04-27T03:26:39.384Z,1.45
2023-04-27T03:29:09.551Z,1.40
2023-04-27T03:31:39.841Z,1.30
2023-04-27T03:34:10.095Z,1.33
2023-04-27T03:36:40.291Z,1.17
2023-04-27T03:39:10.541Z,1.33
2023-04-27T03:41:40.812Z,1.45
2023-04-27T03:44:11.343Z,1.30
2023-04-27T03:46:41.774Z,1.30
2023-04-27T03:49:12.365Z,0.90
2023-04-27T03:51:44.372Z,1.08
2023-04-27T03:54:14.594Z,1.10
2023-04-27T03:56:46.536Z,1.10
2023-04-27T03:59:17.343Z,1.05
2023-04-27T04:01:47.974Z,1.25
2023-04-27T04:04:18.481Z,1.30
2023-04-27T04:06:50.989Z,1.23
2023-04-27T04:09:22.699Z,0.82
2023-04-27T04:11:55.070Z,0.90
2023-04-27T04:14:25.403Z,0.98
2023-04-27T04:16:55.660Z,0.90
2023-04-27T04:19:25.939Z,1.02
2023-04-27T04:21:58.912Z,1.27
2023-04-27T04:24:29.224Z,0.90
2023-04-27T04:27:00.342Z,1.10
2023-04-27T04:29:30.613Z,1.20
2023-04-27T04:32:00.849Z,1.13
2023-04-27T04:34:31.034Z,0.80
2023-04-27T04:37:01.338Z,1.23
2023-04-27T04:39:35.171Z,1.02
2023-04-27T04:42:05.787Z,0.93
2023-04-27T04:44:36.013Z,1.30
2023-04-27T04:47:06.478Z,0.95
2023-04-27T04:49:36.635Z,1.10
2023-04-27T04:52:06.981Z,1.02
2023-04-27T04:54:37.210Z,1.10
2023-04-27T04:57:09.320Z,1.00
2023-04-27T04:59:39.482Z,1.17
2023-04-27T05:02:09.623Z,1.20
2023-04-27T05:04:40.364Z,1.10
2023-04-27T05:07:11.952Z,1.30
2023-04-27T05:09:43.620Z,1.40
2023-04-27T05:12:13.767Z,0.85
2023-04-27T05:14:45.346Z,1.27
2023-04-27T05:17:15.569Z,1.17
2023-04-27T05:19:46.357Z,1.10
2023-04-27T05:22:16.517Z,1.08
2023-04-27T05:24:46.839Z,1.10
2023-04-27T05:27:17.043Z,1.00
2023-04-27T05:29:47.656Z,1.00
2023-04-27T05:32:17.821Z,1.35
2023-04-27T05:34:49.487Z,1.05
2023-04-27T05:37:20.106Z,1.20
2023-04-27T05:39:50.546Z,1.20
2023-04-27T05:42:20.872Z,1.00
2023-04-27T05:44:51.205Z,1.10
2023-04-27T05:47:21.460Z,1.13
2023-04-27T05:49:55.478Z,1.20
2023-04-27T05:52:31.353Z,1.30
2023-04-27T05:55:02.184Z,1.05
2023-04-27T05:57:33.110Z,1.02
2023-04-27T06:00:03.691Z,1.10
2023-04-27T06:02:34.043Z,0.90
2023-04-27T06:05:04.715Z,1.00
2023-04-27T06:07:35.118Z,1.00
2023-04-27T06:10:05.712Z,0.95
2023-04-27T06:12:35.972Z,1.10
2023-04-27T06:15:10.148Z,0.95
2023-04-27T06:17:41.354Z,1.13
2023-04-27T06:20:12.327Z,0.93
2023-04-27T06:22:42.611Z,0.90
2023-04-27T06:25:13.100Z,1.10
2023-04-27T06:27:43.476Z,1.10
2023-04-27T06:30:14.583Z,1.33
2023-04-27T06:32:44.923Z,1.35
2023-04-27T06:35:15.681Z,1.33
2023-04-27T06:37:46.573Z,1.10
2023-04-27T06:40:16.982Z,1.08
2023-04-27T06:42:47.154Z,1.00
2023-04-27T06:45:17.359Z,1.00
2023-04-27T06:47:48.126Z,1.20
2023-04-27T06:50:21.676Z,1.00
2023-04-27T06:52:51.956Z,0.95
2023-04-27T06:55:22.293Z,1.08
2023-04-27T06:57:52.881Z,1.00
2023-04-27T07:00:23.700Z,1.00
2023-04-27T07:02:54.064Z,1.20
2023-04-27T07:05:24.630Z,0.93
2023-04-27T07:07:55.557Z,1.10
2023-04-27T07:10:26.093Z,1.20
2023-04-27T07:12:56.427Z,1.02
2023-04-27T07:15:26.886Z,1.13
2023-04-27T07:17:57.687Z,1.33
2023-04-27T07:20:28.726Z,1.45
2023-04-27T07:22:59.331Z,1.58
2023-04-27T07:25:29.750Z,1.00
2023-04-27T07:28:01.400Z,1.27
2023-04-27T07:30:32.441Z,1.20
2023-04-27T07:33:02.883Z,0.90
2023-04-27T07:35:33.669Z,1.27
2023-04-27T07:38:04.736Z,1.23
2023-04-27T07:40:36.133Z,1.30
2023-04-27T07:43:07.870Z,1.52
2023-04-27T07:45:40.868Z,1.10
2023-04-27T07:48:11.492Z,1.00
2023-04-27T07:50:41.822Z,1.13
2023-04-27T07:53:12.096Z,1.00
2023-04-27T07:55:43.107Z,1.17
2023-04-27T07:58:13.472Z,1.00
2023-04-27T08:00:43.691Z,1.02
2023-04-27T08:03:14.467Z,0.82
2023-04-27T08:05:45.220Z,1.02
2023-04-27T08:08:21.871Z,1.10
2023-04-27T08:10:52.051Z,1.08
2023-04-27T08:13:23.722Z,0.98
2023-04-27T08:16:01.540Z,0.90
2023-04-27T08:18:32.164Z,0.80
2023-04-27T08:21:02.588Z,1.00
2023-04-27T08:23:34.737Z,1.00
2023-04-27T08:26:05.372Z,0.80
2023-04-27T08:28:35.721Z,0.95
2023-04-27T08:31:06.027Z,0.90
2023-04-27T08:33:36.316Z,1.00
2023-04-27T08:36:07.458Z,0.95
2023-04-27T08:38:40.064Z,0.75
2023-04-27T08:41:20.780Z,0.90
2023-04-27T08:43:55.064Z,0.90
2023-04-27T08:46:30.588Z,0.80
2023-04-27T08:49:02.175Z,0.85
2023-04-27T08:51:34.337Z,0.90
2023-04-27T08:54:05.848Z,0.80
2023-04-27T08:56:36.293Z,1.17
2023-04-27T08:59:15.982Z,0.90
2023-04-27T09:01:52.774Z,1.00
2023-04-27T09:04:24.560Z,0.90
2023-04-27T09:06:55.918Z,0.80
2023-04-27T09:09:27.050Z,1.25
2023-04-27T09:11:58.509Z,1.13
2023-04-27T09:14:29.203Z,0.93
2023-04-27T09:17:01.724Z,0.90
2023-04-27T09:19:33.863Z,1.00
2023-04-27T09:22:09.687Z,0.90
2023-04-27T09:24:40.199Z,0.98
2023-04-27T09:27:10.792Z,0.80
2023-04-27T09:29:42.694Z,0.93
2023-04-27T09:32:21.011Z,0.73
2023-04-27T09:34:51.681Z,0.80
2023-04-27T09:37:22.579Z,1.20
2023-04-27T09:39:53.081Z,1.17
2023-04-27T09:42:23.353Z,1.05
2023-04-27T09:44:56.696Z,1.30
2023-04-27T09:47:30.207Z,1.17
2023-04-27T09:50:03.758Z,1.02
2023-04-27T09:52:35.411Z,1.00
2023-04-27T09:55:07.724Z,1.13
2023-04-27T09:57:56.186Z,1.10
2023-04-27T10:01:03.772Z,1.30
2023-04-27T10:03:34.567Z,1.05
2023-04-27T10:06:30.414Z,1.23
2023-04-27T10:09:01.073Z,1.20
2023-04-27T10:11:57.892Z,1.20
2023-04-27T10:14:30.744Z,0.90
2023-04-27T10:17:02.250Z,1.20
2023-04-27T10:19:33.954Z,1.15
2023-04-27T10:22:05.535Z,1.42
2023-04-27T10:24:41.227Z,1.40
2023-04-27T10:27:13.939Z,1.48
2023-04-27T10:29:48.986Z,1.10
2023-04-27T10:32:28.133Z,1.27
2023-04-27T10:35:11.051Z,1.40
2023-04-27T10:37:46.275Z,1.42
2023-04-27T10:40:20.594Z,1.20
2023-04-27T10:42:51.136Z,1.27
2023-04-27T10:45:31.920Z,1.30
2023-04-27T10:48:03.982Z,1.20
2023-04-27T10:50:34.418Z,1.30
2023-04-27T10:53:09.012Z,1.02
2023-04-27T10:55:39.799Z,1.25
2023-04-27T10:58:10.346Z,1.10
2023-04-27T11:00:48.779Z,1.33
2023-04-27T11:03:25.821Z,1.15
2023-04-27T11:06:06.866Z,1.15
2023-04-27T11:08:47.713Z,1.42
2023-04-27T11:11:22.407Z,1.10
2023-04-27T11:13:54.710Z,1.27
2023-04-27T11:16:25.188Z,1.00
2023-04-27T11:18:56.962Z,1.20
2023-04-27T11:21:30.178Z,1.20
2023-04-27T11:24:06.037Z,1.10
2023-04-27T11:26:36.562Z,1.15
2023-04-27T11:29:11.826Z,0.90
2023-04-27T11:31:53.021Z,1.50
2023-04-27T11:34:28.206Z,1.15
2023-04-27T11:39:43.356Z,1.38
2023-04-27T11:42:26.797Z,1.40
2023-04-27T11:45:07.710Z,1.30
2023-04-27T11:47:38.440Z,1.20
2023-04-27T11:50:10.163Z,1.17
2023-04-27T11:52:44.593Z,0.95
2023-04-27T11:55:17.736Z,1.23
2023-04-27T11:57:48.216Z,1.30
2023-04-27T12:00:19.256Z,1.30
2023-04-27T12:02:49.551Z,1.08
2023-04-27T12:05:21.574Z,1.52
2023-04-27T12:07:52.113Z,1.40
2023-04-27T12:10:22.568Z,1.30
2023-04-27T12:12:52.899Z,1.42
2023-04-27T12:15:23.734Z,1.45
2023-04-27T12:17:54.345Z,1.20
2023-04-27T12:20:24.878Z,1.20
2023-04-27T12:22:55.124Z,1.10
2023-04-27T12:25:25.475Z,1.55
2023-04-27T12:27:55.805Z,1.38
2023-04-27T12:30:26.614Z,1.20
2023-04-27T12:32:56.838Z,1.40
2023-04-27T12:35:28.171Z,1.10
2023-04-27T12:37:58.440Z,1.40
2023-04-27T12:40:28.731Z,1.23
2023-04-27T12:43:00.935Z,1.17
2023-04-27T12:45:31.495Z,1.30
2023-04-27T12:48:03.569Z,1.30
2023-04-27T12:53:36.865Z,1.40
2023-04-27T12:56:07.346Z,1.50
2023-04-27T12:58:38.069Z,1.40
2023-04-27T13:01:16.291Z,1.20
2023-04-27T13:03:51.005Z,1.55
2023-04-27T13:06:21.659Z,1.63
2023-04-27T13:08:52.699Z,1.60
2023-04-27T13:11:22.993Z,1.75
2023-04-27T13:13:53.299Z,1.48
2023-04-27T13:16:26.352Z,1.50
2023-04-27T13:18:57.175Z,1.60
2023-04-27T13:21:27.452Z,1.40
2023-04-27T13:24:00.150Z,1.38
2023-04-27T13:26:30.684Z,1.45
2023-04-27T13:29:01.004Z,1.30
2023-04-27T13:31:31.322Z,1.38
2023-04-27T13:34:02.806Z,1.50
2023-04-27T13:36:33.072Z,1.65
2023-04-27T13:39:03.600Z,1.70
2023-04-27T13:41:34.485Z,1.23
2023-04-27T13:44:05.073Z,1.48
2023-04-27T13:46:35.350Z,1.63
2023-04-27T13:49:05.634Z,1.80
2023-04-27T13:51:36.119Z,1.42
2023-04-27T13:54:06.373Z,1.90
2023-04-27T13:56:36.630Z,1.60
2023-04-27T13:59:07.632Z,1.73
2023-04-27T14:01:38.998Z,1.30
2023-04-27T14:04:09.394Z,1.35
2023-04-27T14:06:39.737Z,1.77
2023-04-27T14:09:10.937Z,2.05
2023-04-27T14:11:55.027Z,1.88
2023-04-27T14:14:27.120Z,1.65
2023-04-27T14:16:58.672Z,1.50
2023-04-27T14:19:29.122Z,1.65
2023-04-27T14:22:00.112Z,1.58
2023-04-27T14:24:31.892Z,1.52
2023-04-27T14:27:02.087Z,1.70
2023-04-27T14:29:32.316Z,1.27
2023-04-27T14:32:02.599Z,1.65
2023-04-27T14:34:32.973Z,2.00
2023-04-27T14:37:09.141Z,1.90
2023-04-27T14:39:39.489Z,1.90
2023-04-27T14:42:09.817Z,1.45
2023-04-27T14:44:39.992Z,1.75
2023-04-27T14:47:10.210Z,1.80
2023-04-27T14:49:40.569Z,1.77
2023-04-27T14:52:10.972Z,1.58
2023-04-27T14:54:43.246Z,1.50
2023-04-27T14:57:13.476Z,2.05
2023-04-27T14:59:43.750Z,1.70
2023-04-27T15:02:14.250Z,1.73
2023-04-27T15:04:44.500Z,1.40
2023-04-27T15:07:14.935Z,1.80
2023-04-27T15:09:45.150Z,1.73
2023-04-27T15:12:15.490Z,1.73
2023-04-27T15:14:45.769Z,1.92
2023-04-27T15:17:16.162Z,1.85
2023-04-27T15:19:46.404Z,2.00
2023-04-27T15:22:16.683Z,1.75
2023-04-27T15:24:46.950Z,1.58
2023-04-27T15:27:17.629Z,1.70
2023-04-27T15:29:47.916Z,1.73
2023-04-27T15:32:18.903Z,1.58
2023-04-27T15:34:49.114Z,1.80
2023-04-27T15:37:19.367Z,1.63
2023-04-27T15:39:49.569Z,1.73
2023-04-27T15:42:19.972Z,1.80
2023-04-27T15:44:50.376Z,1.90
2023-04-27T15:47:20.806Z,1.30
2023-04-27T15:49:57.342Z,1.80
2023-04-27T15:52:29.011Z,2.05
2023-04-27T15:54:59.637Z,1.75
2023-04-27T15:57:29.901Z,1.52
2023-04-27T16:00:00.479Z,1.80
2023-04-27T16:02:31.071Z,1.75
2023-04-27T16:05:01.408Z,1.63
2023-04-27T16:07:31.660Z,1.65
2023-04-27T16:10:02.827Z,1.80
2023-04-27T16:12:33.226Z,1.92
2023-04-27T16:15:03.669Z,1.92
2023-04-27T16:17:37.914Z,1.67
2023-04-27T16:20:09.374Z,1.63
2023-04-27T16:22:40.209Z,1.95
2023-04-27T16:25:12.700Z,1.70
2023-04-27T16:27:44.285Z,1.60
2023-04-27T16:30:16.203Z,1.63
2023-04-27T16:32:46.760Z,1.58
2023-04-27T16:35:17.130Z,1.52
2023-04-27T16:37:47.467Z,1.98
2023-04-27T16:40:17.950Z,1.40
2023-04-27T16:42:48.883Z,1.45
2023-04-27T16:45:19.425Z,1.83
2023-04-27T16:47:49.623Z,1.65
2023-04-27T16:50:20.145Z,1.73
2023-04-27T16:52:52.526Z,1.70
2023-04-27T16:55:22.893Z,1.98
2023-04-27T16:57:53.153Z,1.65
2023-04-27T17:00:23.455Z,1.70
2023-04-27T17:02:53.642Z,1.75
2023-04-27T17:05:24.598Z,1.77
2023-04-27T17:07:54.971Z,1.70
2023-04-27T17:10:25.789Z,1.70
2023-04-27T17:12:56.073Z,1.67
2023-04-27T17:15:27.628Z,1.77
2023-04-27T17:17:58.122Z,1.55
2023-04-27T17:20:28.461Z,1.55
2023-04-27T17:22:58.811Z,1.55
2023-04-27T17:25:29.037Z,1.65
2023-04-27T17:28:00.837Z,1.50
2023-04-27T17:30:31.861Z,1.45
2023-04-27T17:33:02.546Z,1.58
2023-04-27T17:35:33.209Z,1.90
2023-04-27T17:38:03.829Z,1.50
2023-04-27T17:40:34.389Z,1.40
2023-04-27T17:43:04.813Z,1.65
2023-04-27T17:45:35.309Z,1.33
2023-04-27T17:48:07.090Z,1.60
2023-04-27T17:50:37.925Z,1.58
2023-04-27T17:53:08.321Z,1.42
2023-04-27T17:55:38.688Z,1.88
2023-04-27T17:58:08.942Z,1.88
2023-04-27T18:00:39.404Z,1.73
2023-04-27T18:03:09.876Z,1.38
2023-04-27T18:05:40.601Z,1.60
2023-04-27T18:08:10.945Z,1.60
2023-04-27T18:10:41.335Z,1.40
2023-04-27T18:13:11.527Z,1.20
2023-04-27T18:15:42.604Z,1.30
2023-04-27T18:18:13.696Z,1.58
2023-04-27T18:20:46.530Z,1.60
2023-04-27T18:23:17.492Z,1.42
2023-04-27T18:25:47.854Z,1.38
2023-04-27T18:28:18.196Z,1.50
2023-04-27T18:30:48.469Z,1.35
2023-04-27T18:33:19.531Z,1.80
2023-04-27T18:35:50.235Z,1.67
2023-04-27T18:38:23.676Z,1.27
2023-04-27T18:40:53.886Z,2.08
2023-04-27T18:43:24.072Z,1.60
2023-04-27T18:45:54.463Z,1.70
2023-04-27T18:48:24.731Z,1.50
2023-04-27T18:50:55.282Z,1.45
2023-04-27T18:53:25.555Z,1.30
2023-04-27T18:55:55.888Z,1.80
2023-04-27T18:58:26.447Z,1.60
2023-04-27T19:00:56.756Z,1.75
2023-04-27T19:03:27.302Z,1.30
2023-04-27T19:05:58.598Z,1.58
2023-04-27T19:08:31.679Z,1.33
2023-04-27T19:11:02.208Z,1.30
2023-04-27T19:13:32.536Z,1.40
2023-04-27T19:16:03.569Z,1.48
2023-04-27T19:18:33.805Z,1.60
2023-04-27T19:21:05.251Z,1.50
2023-04-27T19:23:35.532Z,1.50
2023-04-27T19:26:13.161Z,1.40
2023-04-27T19:28:44.111Z,1.60
2023-04-27T19:31:14.523Z,1.52
2023-04-27T19:33:47.405Z,1.33
2023-04-27T19:36:25.361Z,1.77
2023-04-27T19:38:55.813Z,1.40
2023-04-27T19:41:26.853Z,1.60
2023-04-27T19:43:57.179Z,1.50
2023-04-27T19:46:28.548Z,1.30
2023-04-27T19:48:58.787Z,1.73
2023-04-27T19:51:29.378Z,1.33
2023-04-27T19:53:59.496Z,1.60
2023-04-27T19:56:29.739Z,1.30
2023-04-27T19:59:00.334Z,1.30
2023-04-27T20:01:30.633Z,1.27
2023-04-27T20:04:01.114Z,1.25
2023-04-27T20:06:31.621Z,1.20
2023-04-27T20:09:02.072Z,1.42
2023-04-27T20:11:32.341Z,1.40
2023-04-27T20:14:02.643Z,1.30
2023-04-27T20:16:33.033Z,1.40
2023-04-27T20:19:03.269Z,1.25
2023-04-27T20:21:34.477Z,1.20
2023-04-27T20:24:04.806Z,1.77
2023-04-27T20:26:35.289Z,1.13
2023-04-27T20:29:05.580Z,1.63
2023-04-27T20:31:36.351Z,1.15
2023-04-27T20:34:06.745Z,1.40
2023-04-27T20:36:37.248Z,1.38
2023-04-27T20:39:07.504Z,1.10
2023-04-27T20:41:37.709Z,1.27
2023-04-27T20:44:08.787Z,1.40
2023-04-27T20:46:39.523Z,1.40
2023-04-27T20:49:09.772Z,1.17
2023-04-27T20:51:41.920Z,1.35
2023-04-27T20:54:12.968Z,1.10
2023-04-27T20:56:43.366Z,1.20
2023-04-27T20:59:13.547Z,0.90
2023-04-27T21:01:43.957Z,1.50
2023-04-27T21:04:15.154Z,1.05
2023-04-27T21:06:45.799Z,1.30
2023-04-27T21:09:16.063Z,1.30
2023-04-27T21:11:46.290Z,1.42
2023-04-27T21:14:16.878Z,1.00
2023-04-27T21:16:47.659Z,1.20
2023-04-27T21:19:18.424Z,1.48
2023-04-27T21:21:48.922Z,1.00
2023-04-27T21:24:21.064Z,1.30
2023-04-27T21:26:51.733Z,1.30
2023-04-27T21:29:22.242Z,1.30
2023-04-27T21:31:52.674Z,1.65
2023-04-27T21:34:23.135Z,1.20
2023-04-27T21:36:53.444Z,1.50
2023-04-27T21:39:23.748Z,1.17
2023-04-27T21:41:54.458Z,1.38
2023-04-27T21:44:24.658Z,1.38
2023-04-27T21:46:54.799Z,1.33
2023-04-27T21:49:24.948Z,1.33
2023-04-27T21:51:55.190Z,1.40
2023-04-27T21:54:25.412Z,1.30
2023-04-27T21:56:55.669Z,1.13
2023-04-27T21:59:25.990Z,1.30
2023-04-27T22:01:57.940Z,1.00
2023-04-27T22:04:28.403Z,1.13
2023-04-27T22:06:58.715Z,1.05
2023-04-27T22:09:28.935Z,0.90
2023-04-27T22:11:59.163Z,1.30
2023-04-27T22:14:29.999Z,1.27
2023-04-27T22:17:02.429Z,1.10
2023-04-27T22:19:32.675Z,1.20
2023-04-27T22:22:02.916Z,1.15
2023-04-27T22:24:33.186Z,0.90
2023-04-27T22:27:03.698Z,1.10
2023-04-27T22:29:33.905Z,0.95
2023-04-27T22:32:04.416Z,1.00
2023-04-27T22:34:35.845Z,0.82
2023-04-27T22:37:06.232Z,1.13
2023-04-27T22:39:36.459Z,1.02
2023-04-27T22:42:06.775Z,0.93
2023-04-27T22:44:37.147Z,0.90
2023-04-27T22:47:07.476Z,0.70
2023-04-27T22:49:38.985Z,0.82
2023-04-27T22:52:09.697Z,1.10
2023-04-27T22:54:40.207Z,1.15
2023-04-27T22:57:10.478Z,0.88
2023-04-27T22:59:40.898Z,1.30
2023-04-27T23:02:11.088Z,1.05
2023-04-27T23:04:42.744Z,1.15
2023-04-27T23:07:13.388Z,1.42
2023-04-27T23:09:44.411Z,0.93
2023-04-27T23:12:15.501Z,1.40
2023-04-27T23:14:45.915Z,1.30
2023-04-27T23:17:18.926Z,1.05
2023-04-27T23:19:49.187Z,1.30
2023-04-27T23:22:19.406Z,1.13
2023-04-27T23:24:49.732Z,1.10
2023-04-27T23:27:20.581Z,1.08
2023-04-27T23:29:50.919Z,1.20
2023-04-27T23:32:21.336Z,1.08
2023-04-27T23:34:56.458Z,1.33
2023-04-27T23:37:27.078Z,1.10
2023-04-27T23:39:57.379Z,1.27
2023-04-27T23:42:27.661Z,1.25
2023-04-27T23:44:58.555Z,0.80
2023-04-27T23:47:28.941Z,0.95
2023-04-27T23:49:59.590Z,1.05
2023-04-27T23:52:29.944Z,1.33
2023-04-27T23:55:03.293Z,1.30
2023-04-27T23:57:33.484Z,1.10
